sensor_id;sensor_type;location;lat;lon;timestamp;P1;durP1;ratioP1;P2;durP2;ratioP2
14330;SDS011;7249;49.376;11.080;2024-01-30T00:02:21;5.53;;;3.10;;
14330;SDS011;7249;49.376;11.080;2024-01-30T00:04:47;3.00;;;2.63;;
14330;SDS011;7249;49.376;11.080;2024-01-30T00:07:12;3.67;;;2.60;;
14330;SDS011;7249;49.376;11.080;2024-01-30T00:09:38;4.43;;;2.70;;
14330;SDS011;7249;49.376;11.080;2024-01-30T00:12:07;7.47;;;2.97;;
14330;SDS011;7249;49.376;11.080;2024-01-30T00:14:32;6.07;;;2.97;;
14330;SDS011;7249;49.376;11.080;2024-01-30T00:16:58;6.73;;;2.70;;
14330;SDS011;7249;49.376;11.080;2024-01-30T00:19:24;3.53;;;2.60;;
14330;SDS011;7249;49.376;11.080;2024-01-30T00:21:49;6.83;;;3.57;;
14330;SDS011;7249;49.376;11.080;2024-01-30T00:24:15;5.13;;;2.80;;
14330;SDS011;7249;49.376;11.080;2024-01-30T00:26:41;2.73;;;2.53;;
14330;SDS011;7249;49.376;11.080;2024-01-30T00:29:06;7.27;;;2.93;;
14330;SDS011;7249;49.376;11.080;2024-01-30T00:31:32;4.80;;;3.23;;
14330;SDS011;7249;49.376;11.080;2024-01-30T00:33:58;6.67;;;3.30;;
14330;SDS011;7249;49.376;11.080;2024-01-30T00:36:23;4.93;;;2.80;;
14330;SDS011;7249;49.376;11.080;2024-01-30T00:38:49;5.33;;;3.27;;
14330;SDS011;7249;49.376;11.080;2024-01-30T00:41:17;3.67;;;2.53;;
14330;SDS011;7249;49.376;11.080;2024-01-30T00:43:42;5.80;;;3.43;;
14330;SDS011;7249;49.376;11.080;2024-01-30T00:46:08;3.47;;;2.30;;
14330;SDS011;7249;49.376;11.080;2024-01-30T00:48:34;3.40;;;2.53;;
14330;SDS011;7249;49.376;11.080;2024-01-30T00:50:59;4.83;;;3.20;;
14330;SDS011;7249;49.376;11.080;2024-01-30T00:53:26;3.63;;;2.93;;
14330;SDS011;7249;49.376;11.080;2024-01-30T00:55:51;3.97;;;2.67;;
14330;SDS011;7249;49.376;11.080;2024-01-30T00:58:17;3.93;;;2.63;;
14330;SDS011;7249;49.376;11.080;2024-01-30T01:00:44;5.73;;;3.70;;
14330;SDS011;7249;49.376;11.080;2024-01-30T01:03:10;8.33;;;3.23;;
14330;SDS011;7249;49.376;11.080;2024-01-30T01:05:35;4.73;;;2.77;;
14330;SDS011;7249;49.376;11.080;2024-01-30T01:08:01;7.47;;;2.80;;
14330;SDS011;7249;49.376;11.080;2024-01-30T01:10:27;6.90;;;3.40;;
14330;SDS011;7249;49.376;11.080;2024-01-30T01:12:53;3.97;;;2.57;;
14330;SDS011;7249;49.376;11.080;2024-01-30T01:15:18;5.00;;;3.00;;
14330;SDS011;7249;49.376;11.080;2024-01-30T01:17:44;4.07;;;2.63;;
14330;SDS011;7249;49.376;11.080;2024-01-30T01:20:10;4.63;;;2.57;;
14330;SDS011;7249;49.376;11.080;2024-01-30T01:22:37;3.63;;;3.23;;
14330;SDS011;7249;49.376;11.080;2024-01-30T01:25:06;3.43;;;2.60;;
14330;SDS011;7249;49.376;11.080;2024-01-30T01:27:33;4.77;;;2.63;;
14330;SDS011;7249;49.376;11.080;2024-01-30T01:29:59;5.30;;;2.93;;
14330;SDS011;7249;49.376;11.080;2024-01-30T01:32:25;8.37;;;3.23;;
14330;SDS011;7249;49.376;11.080;2024-01-30T01:34:51;3.20;;;2.30;;
14330;SDS011;7249;49.376;11.080;2024-01-30T01:37:17;2.50;;;2.07;;
14330;SDS011;7249;49.376;11.080;2024-01-30T01:39:43;3.37;;;2.90;;
14330;SDS011;7249;49.376;11.080;2024-01-30T01:42:08;3.17;;;2.87;;
14330;SDS011;7249;49.376;11.080;2024-01-30T01:44:34;2.63;;;2.37;;
14330;SDS011;7249;49.376;11.080;2024-01-30T01:47:00;3.30;;;2.33;;
14330;SDS011;7249;49.376;11.080;2024-01-30T01:49:27;4.50;;;2.33;;
14330;SDS011;7249;49.376;11.080;2024-01-30T01:51:53;6.73;;;2.57;;
14330;SDS011;7249;49.376;11.080;2024-01-30T01:54:24;8.47;;;2.17;;
14330;SDS011;7249;49.376;11.080;2024-01-30T01:56:51;3.83;;;2.50;;
14330;SDS011;7249;49.376;11.080;2024-01-30T01:59:18;3.23;;;2.10;;
14330;SDS011;7249;49.376;11.080;2024-01-30T02:01:45;2.87;;;2.13;;
14330;SDS011;7249;49.376;11.080;2024-01-30T02:04:14;2.53;;;2.20;;
14330;SDS011;7249;49.376;11.080;2024-01-30T02:06:40;2.40;;;2.00;;
14330;SDS011;7249;49.376;11.080;2024-01-30T02:09:06;2.97;;;2.40;;
14330;SDS011;7249;49.376;11.080;2024-01-30T02:11:34;4.07;;;2.47;;
14330;SDS011;7249;49.376;11.080;2024-01-30T02:14:03;3.07;;;2.17;;
14330;SDS011;7249;49.376;11.080;2024-01-30T02:16:29;4.07;;;2.40;;
14330;SDS011;7249;49.376;11.080;2024-01-30T02:18:55;4.90;;;2.90;;
14330;SDS011;7249;49.376;11.080;2024-01-30T02:21:21;3.77;;;2.43;;
14330;SDS011;7249;49.376;11.080;2024-01-30T02:23:46;3.73;;;2.17;;
14330;SDS011;7249;49.376;11.080;2024-01-30T02:26:13;2.43;;;1.93;;
14330;SDS011;7249;49.376;11.080;2024-01-30T02:28:39;4.83;;;2.10;;
14330;SDS011;7249;49.376;11.080;2024-01-30T02:31:04;3.30;;;2.23;;
14330;SDS011;7249;49.376;11.080;2024-01-30T02:33:30;3.30;;;2.03;;
14330;SDS011;7249;49.376;11.080;2024-01-30T02:35:56;3.83;;;2.47;;
14330;SDS011;7249;49.376;11.080;2024-01-30T02:38:22;3.70;;;2.60;;
14330;SDS011;7249;49.376;11.080;2024-01-30T02:40:48;4.20;;;2.43;;
14330;SDS011;7249;49.376;11.080;2024-01-30T02:43:15;3.40;;;2.33;;
14330;SDS011;7249;49.376;11.080;2024-01-30T02:45:41;3.97;;;2.47;;
14330;SDS011;7249;49.376;11.080;2024-01-30T02:48:07;2.83;;;2.40;;
14330;SDS011;7249;49.376;11.080;2024-01-30T02:50:33;3.33;;;2.80;;
14330;SDS011;7249;49.376;11.080;2024-01-30T02:52:58;3.00;;;2.30;;
14330;SDS011;7249;49.376;11.080;2024-01-30T02:55:24;3.40;;;2.30;;
14330;SDS011;7249;49.376;11.080;2024-01-30T02:57:50;3.50;;;2.13;;
14330;SDS011;7249;49.376;11.080;2024-01-30T03:00:15;5.90;;;2.80;;
14330;SDS011;7249;49.376;11.080;2024-01-30T03:02:41;3.30;;;2.30;;
14330;SDS011;7249;49.376;11.080;2024-01-30T03:05:07;4.70;;;2.30;;
14330;SDS011;7249;49.376;11.080;2024-01-30T03:07:33;5.83;;;2.43;;
14330;SDS011;7249;49.376;11.080;2024-01-30T03:09:59;3.53;;;2.50;;
14330;SDS011;7249;49.376;11.080;2024-01-30T03:12:25;5.07;;;2.27;;
14330;SDS011;7249;49.376;11.080;2024-01-30T03:14:50;3.37;;;2.50;;
14330;SDS011;7249;49.376;11.080;2024-01-30T03:17:16;3.70;;;2.70;;
14330;SDS011;7249;49.376;11.080;2024-01-30T03:19:42;2.33;;;2.10;;
14330;SDS011;7249;49.376;11.080;2024-01-30T03:22:08;5.37;;;2.50;;
14330;SDS011;7249;49.376;11.080;2024-01-30T03:24:33;3.40;;;2.80;;
14330;SDS011;7249;49.376;11.080;2024-01-30T03:26:59;4.40;;;2.20;;
14330;SDS011;7249;49.376;11.080;2024-01-30T03:29:25;3.30;;;2.00;;
14330;SDS011;7249;49.376;11.080;2024-01-30T03:31:50;5.43;;;2.40;;
14330;SDS011;7249;49.376;11.080;2024-01-30T03:34:16;5.20;;;2.37;;
14330;SDS011;7249;49.376;11.080;2024-01-30T03:36:41;2.30;;;2.03;;
14330;SDS011;7249;49.376;11.080;2024-01-30T03:39:07;3.23;;;2.30;;
14330;SDS011;7249;49.376;11.080;2024-01-30T03:41:33;6.27;;;2.23;;
14330;SDS011;7249;49.376;11.080;2024-01-30T03:43:58;2.43;;;2.00;;
14330;SDS011;7249;49.376;11.080;2024-01-30T03:46:24;2.90;;;2.40;;
14330;SDS011;7249;49.376;11.080;2024-01-30T03:48:50;3.43;;;2.13;;
14330;SDS011;7249;49.376;11.080;2024-01-30T03:51:16;3.20;;;2.37;;
14330;SDS011;7249;49.376;11.080;2024-01-30T03:53:42;2.47;;;2.17;;
14330;SDS011;7249;49.376;11.080;2024-01-30T03:56:08;3.20;;;2.70;;
14330;SDS011;7249;49.376;11.080;2024-01-30T03:58:34;4.57;;;2.40;;
14330;SDS011;7249;49.376;11.080;2024-01-30T04:01:00;5.53;;;2.50;;
14330;SDS011;7249;49.376;11.080;2024-01-30T04:03:25;5.70;;;2.43;;
14330;SDS011;7249;49.376;11.080;2024-01-30T04:05:52;3.00;;;2.53;;
14330;SDS011;7249;49.376;11.080;2024-01-30T04:08:18;3.17;;;2.40;;
14330;SDS011;7249;49.376;11.080;2024-01-30T04:10:43;2.90;;;2.27;;
14330;SDS011;7249;49.376;11.080;2024-01-30T04:13:09;3.83;;;2.40;;
14330;SDS011;7249;49.376;11.080;2024-01-30T04:15:35;2.73;;;2.30;;
14330;SDS011;7249;49.376;11.080;2024-01-30T04:18:01;6.10;;;2.73;;
14330;SDS011;7249;49.376;11.080;2024-01-30T04:20:27;3.27;;;2.97;;
14330;SDS011;7249;49.376;11.080;2024-01-30T04:22:52;5.77;;;2.90;;
14330;SDS011;7249;49.376;11.080;2024-01-30T04:25:18;4.47;;;2.37;;
14330;SDS011;7249;49.376;11.080;2024-01-30T04:27:44;5.30;;;2.93;;
14330;SDS011;7249;49.376;11.080;2024-01-30T04:30:10;3.07;;;2.77;;
14330;SDS011;7249;49.376;11.080;2024-01-30T04:32:35;4.43;;;3.00;;
14330;SDS011;7249;49.376;11.080;2024-01-30T04:35:01;7.83;;;4.07;;
14330;SDS011;7249;49.376;11.080;2024-01-30T04:37:28;4.70;;;3.20;;
14330;SDS011;7249;49.376;11.080;2024-01-30T04:39:54;4.20;;;2.70;;
14330;SDS011;7249;49.376;11.080;2024-01-30T04:42:20;4.43;;;3.33;;
14330;SDS011;7249;49.376;11.080;2024-01-30T04:44:48;4.40;;;2.90;;
14330;SDS011;7249;49.376;11.080;2024-01-30T04:47:14;2.87;;;2.57;;
14330;SDS011;7249;49.376;11.080;2024-01-30T04:49:40;3.60;;;2.60;;
14330;SDS011;7249;49.376;11.080;2024-01-30T04:52:07;5.87;;;3.07;;
14330;SDS011;7249;49.376;11.080;2024-01-30T04:54:33;4.83;;;3.10;;
14330;SDS011;7249;49.376;11.080;2024-01-30T04:56:59;4.27;;;2.67;;
14330;SDS011;7249;49.376;11.080;2024-01-30T04:59:25;4.60;;;3.37;;
14330;SDS011;7249;49.376;11.080;2024-01-30T05:01:51;3.47;;;2.43;;
14330;SDS011;7249;49.376;11.080;2024-01-30T05:04:17;3.10;;;2.80;;
14330;SDS011;7249;49.376;11.080;2024-01-30T05:06:43;4.87;;;3.17;;
14330;SDS011;7249;49.376;11.080;2024-01-30T05:09:08;3.97;;;2.93;;
14330;SDS011;7249;49.376;11.080;2024-01-30T05:11:37;3.47;;;2.77;;
14330;SDS011;7249;49.376;11.080;2024-01-30T05:14:05;5.30;;;2.93;;
14330;SDS011;7249;49.376;11.080;2024-01-30T05:16:31;5.57;;;3.10;;
14330;SDS011;7249;49.376;11.080;2024-01-30T05:18:56;3.10;;;2.80;;
14330;SDS011;7249;49.376;11.080;2024-01-30T05:21:22;6.93;;;3.00;;
14330;SDS011;7249;49.376;11.080;2024-01-30T05:23:48;4.10;;;2.77;;
14330;SDS011;7249;49.376;11.080;2024-01-30T05:26:14;4.00;;;2.67;;
14330;SDS011;7249;49.376;11.080;2024-01-30T05:28:39;4.07;;;3.13;;
14330;SDS011;7249;49.376;11.080;2024-01-30T05:31:05;4.33;;;3.00;;
14330;SDS011;7249;49.376;11.080;2024-01-30T05:33:31;2.97;;;2.30;;
14330;SDS011;7249;49.376;11.080;2024-01-30T05:35:56;6.73;;;3.40;;
14330;SDS011;7249;49.376;11.080;2024-01-30T05:38:22;3.30;;;2.60;;
14330;SDS011;7249;49.376;11.080;2024-01-30T05:40:48;6.50;;;2.97;;
14330;SDS011;7249;49.376;11.080;2024-01-30T05:43:13;5.20;;;2.53;;
14330;SDS011;7249;49.376;11.080;2024-01-30T05:45:39;5.73;;;3.50;;
14330;SDS011;7249;49.376;11.080;2024-01-30T05:48:05;5.27;;;3.50;;
14330;SDS011;7249;49.376;11.080;2024-01-30T05:50:31;6.93;;;3.83;;
14330;SDS011;7249;49.376;11.080;2024-01-30T05:52:57;5.47;;;3.30;;
14330;SDS011;7249;49.376;11.080;2024-01-30T05:55:22;4.67;;;3.50;;
14330;SDS011;7249;49.376;11.080;2024-01-30T05:57:48;5.73;;;3.50;;
14330;SDS011;7249;49.376;11.080;2024-01-30T06:00:14;4.43;;;3.20;;
14330;SDS011;7249;49.376;11.080;2024-01-30T06:02:40;5.80;;;3.60;;
14330;SDS011;7249;49.376;11.080;2024-01-30T06:05:06;10.73;;;4.07;;
14330;SDS011;7249;49.376;11.080;2024-01-30T06:07:32;5.43;;;3.40;;
14330;SDS011;7249;49.376;11.080;2024-01-30T06:09:58;5.80;;;3.87;;
14330;SDS011;7249;49.376;11.080;2024-01-30T06:12:26;8.30;;;4.33;;
14330;SDS011;7249;49.376;11.080;2024-01-30T06:14:52;9.63;;;3.97;;
14330;SDS011;7249;49.376;11.080;2024-01-30T06:17:21;5.67;;;3.80;;
14330;SDS011;7249;49.376;11.080;2024-01-30T06:19:47;8.00;;;5.17;;
14330;SDS011;7249;49.376;11.080;2024-01-30T06:22:13;6.70;;;4.47;;
14330;SDS011;7249;49.376;11.080;2024-01-30T06:24:39;5.87;;;3.90;;
14330;SDS011;7249;49.376;11.080;2024-01-30T06:27:04;7.37;;;4.37;;
14330;SDS011;7249;49.376;11.080;2024-01-30T06:29:30;5.13;;;4.00;;
14330;SDS011;7249;49.376;11.080;2024-01-30T06:31:56;7.87;;;4.47;;
14330;SDS011;7249;49.376;11.080;2024-01-30T06:34:22;5.80;;;4.20;;
14330;SDS011;7249;49.376;11.080;2024-01-30T06:36:48;8.43;;;4.90;;
14330;SDS011;7249;49.376;11.080;2024-01-30T06:39:13;7.57;;;4.50;;
14330;SDS011;7249;49.376;11.080;2024-01-30T06:41:39;9.83;;;4.50;;
14330;SDS011;7249;49.376;11.080;2024-01-30T06:44:05;7.70;;;4.37;;
14330;SDS011;7249;49.376;11.080;2024-01-30T06:46:33;7.43;;;4.33;;
14330;SDS011;7249;49.376;11.080;2024-01-30T06:48:59;10.07;;;5.57;;
14330;SDS011;7249;49.376;11.080;2024-01-30T06:51:24;8.70;;;3.70;;
14330;SDS011;7249;49.376;11.080;2024-01-30T06:53:50;6.73;;;4.30;;
14330;SDS011;7249;49.376;11.080;2024-01-30T06:56:16;8.90;;;5.37;;
14330;SDS011;7249;49.376;11.080;2024-01-30T06:58:46;6.30;;;4.30;;
14330;SDS011;7249;49.376;11.080;2024-01-30T07:01:15;6.70;;;4.70;;
14330;SDS011;7249;49.376;11.080;2024-01-30T07:03:41;9.10;;;4.77;;
14330;SDS011;7249;49.376;11.080;2024-01-30T07:06:07;6.57;;;4.60;;
14330;SDS011;7249;49.376;11.080;2024-01-30T07:08:33;9.77;;;4.47;;
14330;SDS011;7249;49.376;11.080;2024-01-30T07:10:59;7.57;;;4.60;;
14330;SDS011;7249;49.376;11.080;2024-01-30T07:13:25;7.30;;;4.60;;
14330;SDS011;7249;49.376;11.080;2024-01-30T07:15:50;9.33;;;4.13;;
14330;SDS011;7249;49.376;11.080;2024-01-30T07:18:16;7.17;;;4.20;;
14330;SDS011;7249;49.376;11.080;2024-01-30T07:20:42;12.03;;;5.47;;
14330;SDS011;7249;49.376;11.080;2024-01-30T07:23:11;8.00;;;5.00;;
14330;SDS011;7249;49.376;11.080;2024-01-30T07:25:45;9.83;;;5.37;;
14330;SDS011;7249;49.376;11.080;2024-01-30T07:28:13;9.00;;;5.13;;
14330;SDS011;7249;49.376;11.080;2024-01-30T07:30:41;9.40;;;4.87;;
14330;SDS011;7249;49.376;11.080;2024-01-30T07:33:07;8.97;;;5.43;;
14330;SDS011;7249;49.376;11.080;2024-01-30T07:35:34;9.67;;;5.03;;
14330;SDS011;7249;49.376;11.080;2024-01-30T07:38:00;8.77;;;5.40;;
14330;SDS011;7249;49.376;11.080;2024-01-30T07:40:25;8.10;;;4.83;;
14330;SDS011;7249;49.376;11.080;2024-01-30T07:42:52;7.57;;;4.80;;
14330;SDS011;7249;49.376;11.080;2024-01-30T07:45:18;6.33;;;4.37;;
14330;SDS011;7249;49.376;11.080;2024-01-30T07:47:48;8.80;;;4.87;;
14330;SDS011;7249;49.376;11.080;2024-01-30T07:50:14;6.57;;;4.80;;
14330;SDS011;7249;49.376;11.080;2024-01-30T07:52:40;10.40;;;4.87;;
14330;SDS011;7249;49.376;11.080;2024-01-30T07:55:05;9.47;;;4.87;;
14330;SDS011;7249;49.376;11.080;2024-01-30T07:57:33;6.40;;;4.60;;
14330;SDS011;7249;49.376;11.080;2024-01-30T07:59:59;9.80;;;5.03;;
14330;SDS011;7249;49.376;11.080;2024-01-30T08:02:25;5.90;;;4.27;;
14330;SDS011;7249;49.376;11.080;2024-01-30T08:04:51;9.17;;;4.47;;
14330;SDS011;7249;49.376;11.080;2024-01-30T08:07:16;9.03;;;5.30;;
14330;SDS011;7249;49.376;11.080;2024-01-30T08:09:43;7.97;;;4.50;;
14330;SDS011;7249;49.376;11.080;2024-01-30T08:12:09;8.80;;;5.17;;
14330;SDS011;7249;49.376;11.080;2024-01-30T08:14:34;6.27;;;4.50;;
14330;SDS011;7249;49.376;11.080;2024-01-30T08:17:00;8.40;;;4.87;;
14330;SDS011;7249;49.376;11.080;2024-01-30T08:19:26;7.80;;;4.73;;
14330;SDS011;7249;49.376;11.080;2024-01-30T08:21:52;8.40;;;4.57;;
14330;SDS011;7249;49.376;11.080;2024-01-30T08:24:17;8.40;;;4.63;;
14330;SDS011;7249;49.376;11.080;2024-01-30T08:26:43;7.67;;;5.10;;
14330;SDS011;7249;49.376;11.080;2024-01-30T08:29:08;10.57;;;5.03;;
14330;SDS011;7249;49.376;11.080;2024-01-30T08:31:34;8.07;;;5.23;;
14330;SDS011;7249;49.376;11.080;2024-01-30T08:34:00;9.50;;;5.10;;
14330;SDS011;7249;49.376;11.080;2024-01-30T08:36:25;9.83;;;4.90;;
14330;SDS011;7249;49.376;11.080;2024-01-30T08:38:51;9.33;;;5.47;;
14330;SDS011;7249;49.376;11.080;2024-01-30T08:41:16;8.97;;;5.10;;
14330;SDS011;7249;49.376;11.080;2024-01-30T08:43:42;9.67;;;5.70;;
14330;SDS011;7249;49.376;11.080;2024-01-30T08:46:09;8.43;;;4.90;;
14330;SDS011;7249;49.376;11.080;2024-01-30T08:48:36;9.07;;;5.23;;
14330;SDS011;7249;49.376;11.080;2024-01-30T08:51:01;7.73;;;5.60;;
14330;SDS011;7249;49.376;11.080;2024-01-30T08:53:27;7.87;;;5.30;;
14330;SDS011;7249;49.376;11.080;2024-01-30T08:55:53;7.80;;;5.77;;
14330;SDS011;7249;49.376;11.080;2024-01-30T08:58:19;10.33;;;5.93;;
14330;SDS011;7249;49.376;11.080;2024-01-30T09:00:44;10.90;;;5.80;;
14330;SDS011;7249;49.376;11.080;2024-01-30T09:03:10;9.77;;;5.43;;
14330;SDS011;7249;49.376;11.080;2024-01-30T09:05:35;11.23;;;6.20;;
14330;SDS011;7249;49.376;11.080;2024-01-30T09:08:01;10.20;;;5.23;;
14330;SDS011;7249;49.376;11.080;2024-01-30T09:10:27;9.47;;;5.30;;
14330;SDS011;7249;49.376;11.080;2024-01-30T09:12:52;6.30;;;5.27;;
14330;SDS011;7249;49.376;11.080;2024-01-30T09:15:18;10.20;;;5.43;;
14330;SDS011;7249;49.376;11.080;2024-01-30T09:17:44;9.30;;;5.43;;
14330;SDS011;7249;49.376;11.080;2024-01-30T09:20:10;5.43;;;4.17;;
14330;SDS011;7249;49.376;11.080;2024-01-30T09:22:36;10.73;;;5.93;;
14330;SDS011;7249;49.376;11.080;2024-01-30T09:25:01;8.30;;;5.90;;
14330;SDS011;7249;49.376;11.080;2024-01-30T09:27:27;8.97;;;5.70;;
14330;SDS011;7249;49.376;11.080;2024-01-30T09:29:53;8.20;;;4.87;;
14330;SDS011;7249;49.376;11.080;2024-01-30T09:32:18;7.23;;;5.43;;
14330;SDS011;7249;49.376;11.080;2024-01-30T09:34:44;8.30;;;5.67;;
14330;SDS011;7249;49.376;11.080;2024-01-30T09:37:10;7.73;;;5.20;;
14330;SDS011;7249;49.376;11.080;2024-01-30T09:39:36;7.03;;;5.20;;
14330;SDS011;7249;49.376;11.080;2024-01-30T09:42:05;7.87;;;5.60;;
14330;SDS011;7249;49.376;11.080;2024-01-30T09:44:36;6.07;;;4.60;;
14330;SDS011;7249;49.376;11.080;2024-01-30T09:47:03;6.87;;;5.10;;
14330;SDS011;7249;49.376;11.080;2024-01-30T09:49:31;8.13;;;5.30;;
14330;SDS011;7249;49.376;11.080;2024-01-30T09:51:58;7.87;;;5.43;;
14330;SDS011;7249;49.376;11.080;2024-01-30T09:54:23;8.03;;;5.43;;
14330;SDS011;7249;49.376;11.080;2024-01-30T09:56:49;6.53;;;4.80;;
14330;SDS011;7249;49.376;11.080;2024-01-30T09:59:15;8.97;;;6.03;;
14330;SDS011;7249;49.376;11.080;2024-01-30T10:01:41;7.47;;;5.40;;
14330;SDS011;7249;49.376;11.080;2024-01-30T10:04:08;9.00;;;5.37;;
14330;SDS011;7249;49.376;11.080;2024-01-30T10:06:34;8.40;;;6.07;;
14330;SDS011;7249;49.376;11.080;2024-01-30T10:08:59;10.57;;;5.27;;
14330;SDS011;7249;49.376;11.080;2024-01-30T10:33:55;5.63;;;4.27;;
14330;SDS011;7249;49.376;11.080;2024-01-30T10:36:41;7.20;;;4.60;;
14330;SDS011;7249;49.376;11.080;2024-01-30T10:46:51;8.27;;;4.97;;
14330;SDS011;7249;49.376;11.080;2024-01-30T10:49:28;11.97;;;4.77;;
14330;SDS011;7249;49.376;11.080;2024-01-30T10:51:54;7.63;;;4.47;;
14330;SDS011;7249;49.376;11.080;2024-01-30T10:54:21;7.03;;;5.07;;
14330;SDS011;7249;49.376;11.080;2024-01-30T10:56:49;7.43;;;4.63;;
14330;SDS011;7249;49.376;11.080;2024-01-30T10:59:15;6.87;;;4.93;;
14330;SDS011;7249;49.376;11.080;2024-01-30T11:01:42;5.90;;;4.87;;
14330;SDS011;7249;49.376;11.080;2024-01-30T11:04:08;6.90;;;4.90;;
14330;SDS011;7249;49.376;11.080;2024-01-30T11:06:40;7.33;;;5.37;;
14330;SDS011;7249;49.376;11.080;2024-01-30T11:09:10;9.20;;;5.07;;
14330;SDS011;7249;49.376;11.080;2024-01-30T11:13:09;7.47;;;4.63;;
14330;SDS011;7249;49.376;11.080;2024-01-30T11:15:37;8.47;;;5.57;;
14330;SDS011;7249;49.376;11.080;2024-01-30T11:18:03;7.37;;;4.90;;
14330;SDS011;7249;49.376;11.080;2024-01-30T11:20:29;5.90;;;4.50;;
14330;SDS011;7249;49.376;11.080;2024-01-30T11:22:56;7.37;;;5.20;;
14330;SDS011;7249;49.376;11.080;2024-01-30T11:25:23;8.20;;;5.13;;
14330;SDS011;7249;49.376;11.080;2024-01-30T11:27:50;7.03;;;5.03;;
14330;SDS011;7249;49.376;11.080;2024-01-30T11:30:23;6.10;;;5.03;;
14330;SDS011;7249;49.376;11.080;2024-01-30T11:37:28;7.77;;;5.17;;
14330;SDS011;7249;49.376;11.080;2024-01-30T11:39:56;8.27;;;4.67;;
14330;SDS011;7249;49.376;11.080;2024-01-30T11:42:22;10.27;;;5.70;;
14330;SDS011;7249;49.376;11.080;2024-01-30T11:44:50;6.23;;;4.70;;
14330;SDS011;7249;49.376;11.080;2024-01-30T11:47:16;7.23;;;4.70;;
14330;SDS011;7249;49.376;11.080;2024-01-30T11:49:42;8.80;;;5.00;;
14330;SDS011;7249;49.376;11.080;2024-01-30T11:52:08;5.40;;;4.57;;
14330;SDS011;7249;49.376;11.080;2024-01-30T11:54:35;6.90;;;5.10;;
14330;SDS011;7249;49.376;11.080;2024-01-30T11:57:00;7.60;;;4.63;;
14330;SDS011;7249;49.376;11.080;2024-01-30T11:59:26;7.40;;;5.13;;
14330;SDS011;7249;49.376;11.080;2024-01-30T12:01:52;9.10;;;5.20;;
14330;SDS011;7249;49.376;11.080;2024-01-30T12:04:18;6.47;;;4.60;;
14330;SDS011;7249;49.376;11.080;2024-01-30T12:06:43;6.50;;;4.97;;
14330;SDS011;7249;49.376;11.080;2024-01-30T12:09:10;8.27;;;5.07;;
14330;SDS011;7249;49.376;11.080;2024-01-30T12:11:47;6.20;;;4.27;;
14330;SDS011;7249;49.376;11.080;2024-01-30T12:14:15;7.97;;;5.53;;
14330;SDS011;7249;49.376;11.080;2024-01-30T12:16:42;6.50;;;4.50;;
14330;SDS011;7249;49.376;11.080;2024-01-30T12:19:07;7.80;;;4.43;;
14330;SDS011;7249;49.376;11.080;2024-01-30T12:21:33;9.00;;;5.28;;
14330;SDS011;7249;49.376;11.080;2024-01-30T12:24:00;9.20;;;5.07;;
14330;SDS011;7249;49.376;11.080;2024-01-30T12:26:26;8.07;;;5.20;;
14330;SDS011;7249;49.376;11.080;2024-01-30T12:28:55;9.25;;;5.00;;
14330;SDS011;7249;49.376;11.080;2024-01-30T12:31:26;5.55;;;4.88;;
14330;SDS011;7249;49.376;11.080;2024-01-30T12:33:59;7.20;;;4.57;;
14330;SDS011;7249;49.376;11.080;2024-01-30T12:36:25;7.70;;;4.80;;
14330;SDS011;7249;49.376;11.080;2024-01-30T12:38:51;6.80;;;4.38;;
14330;SDS011;7249;49.376;11.080;2024-01-30T12:41:17;7.30;;;5.30;;
14330;SDS011;7249;49.376;11.080;2024-01-30T12:43:43;6.60;;;4.82;;
14330;SDS011;7249;49.376;11.080;2024-01-30T12:46:09;13.20;;;4.97;;
14330;SDS011;7249;49.376;11.080;2024-01-30T12:48:35;9.43;;;5.35;;
14330;SDS011;7249;49.376;11.080;2024-01-30T12:51:01;7.32;;;5.03;;
14330;SDS011;7249;49.376;11.080;2024-01-30T12:53:26;8.02;;;5.20;;
14330;SDS011;7249;49.376;11.080;2024-01-30T12:55:52;8.07;;;5.30;;
14330;SDS011;7249;49.376;11.080;2024-01-30T12:58:19;8.55;;;5.70;;
14330;SDS011;7249;49.376;11.080;2024-01-30T13:00:45;9.35;;;5.30;;
14330;SDS011;7249;49.376;11.080;2024-01-30T13:03:12;7.70;;;5.25;;
14330;SDS011;7249;49.376;11.080;2024-01-30T13:05:38;7.65;;;4.90;;
14330;SDS011;7249;49.376;11.080;2024-01-30T13:08:03;7.47;;;4.63;;
14330;SDS011;7249;49.376;11.080;2024-01-30T13:10:29;7.72;;;4.85;;
14330;SDS011;7249;49.376;11.080;2024-01-30T13:12:55;6.30;;;5.10;;
14330;SDS011;7249;49.376;11.080;2024-01-30T13:15:21;7.70;;;5.07;;
14330;SDS011;7249;49.376;11.080;2024-01-30T13:17:48;6.95;;;4.93;;
14330;SDS011;7249;49.376;11.080;2024-01-30T13:20:14;6.82;;;5.00;;
14330;SDS011;7249;49.376;11.080;2024-01-30T13:22:44;6.07;;;4.88;;
14330;SDS011;7249;49.376;11.080;2024-01-30T13:25:10;7.15;;;4.85;;
14330;SDS011;7249;49.376;11.080;2024-01-30T13:27:39;12.63;;;5.22;;
14330;SDS011;7249;49.376;11.080;2024-01-30T13:30:04;8.73;;;5.28;;
14330;SDS011;7249;49.376;11.080;2024-01-30T13:32:31;6.43;;;4.88;;
14330;SDS011;7249;49.376;11.080;2024-01-30T13:34:57;7.50;;;4.70;;
14330;SDS011;7249;49.376;11.080;2024-01-30T13:37:23;7.13;;;4.80;;
14330;SDS011;7249;49.376;11.080;2024-01-30T13:39:49;8.07;;;5.00;;
14330;SDS011;7249;49.376;11.080;2024-01-30T13:42:14;6.55;;;4.88;;
14330;SDS011;7249;49.376;11.080;2024-01-30T13:44:40;7.05;;;4.57;;
14330;SDS011;7249;49.376;11.080;2024-01-30T13:47:08;9.30;;;4.78;;
14330;SDS011;7249;49.376;11.080;2024-01-30T13:49:33;6.95;;;4.97;;
14330;SDS011;7249;49.376;11.080;2024-01-30T13:51:59;5.28;;;3.97;;
14330;SDS011;7249;49.376;11.080;2024-01-30T13:54:25;5.93;;;4.28;;
14330;SDS011;7249;49.376;11.080;2024-01-30T13:56:50;7.10;;;5.30;;
14330;SDS011;7249;49.376;11.080;2024-01-30T13:59:16;6.93;;;4.50;;
14330;SDS011;7249;49.376;11.080;2024-01-30T14:01:47;7.47;;;4.80;;
14330;SDS011;7249;49.376;11.080;2024-01-30T14:04:13;7.97;;;4.40;;
14330;SDS011;7249;49.376;11.080;2024-01-30T14:06:39;7.25;;;4.57;;
14330;SDS011;7249;49.376;11.080;2024-01-30T14:09:05;5.60;;;4.22;;
14330;SDS011;7249;49.376;11.080;2024-01-30T14:11:32;5.50;;;4.53;;
14330;SDS011;7249;49.376;11.080;2024-01-30T14:13:58;6.28;;;4.45;;
14330;SDS011;7249;49.376;11.080;2024-01-30T14:16:23;7.50;;;5.25;;
14330;SDS011;7249;49.376;11.080;2024-01-30T14:18:49;5.80;;;4.88;;
14330;SDS011;7249;49.376;11.080;2024-01-30T14:21:15;7.40;;;4.45;;
14330;SDS011;7249;49.376;11.080;2024-01-30T14:23:41;8.05;;;4.82;;
14330;SDS011;7249;49.376;11.080;2024-01-30T14:26:07;6.20;;;4.40;;
14330;SDS011;7249;49.376;11.080;2024-01-30T14:28:32;7.25;;;4.65;;
14330;SDS011;7249;49.376;11.080;2024-01-30T14:30:58;5.83;;;4.20;;
14330;SDS011;7249;49.376;11.080;2024-01-30T14:33:24;7.63;;;4.22;;
14330;SDS011;7249;49.376;11.080;2024-01-30T14:35:50;4.80;;;4.10;;
14330;SDS011;7249;49.376;11.080;2024-01-30T14:38:16;6.47;;;4.50;;
14330;SDS011;7249;49.376;11.080;2024-01-30T14:40:42;6.95;;;4.75;;
14330;SDS011;7249;49.376;11.080;2024-01-30T14:43:08;6.97;;;4.30;;
14330;SDS011;7249;49.376;11.080;2024-01-30T14:45:33;6.28;;;4.53;;
14330;SDS011;7249;49.376;11.080;2024-01-30T14:47:59;9.07;;;4.67;;
14330;SDS011;7249;49.376;11.080;2024-01-30T14:50:25;6.20;;;4.70;;
14330;SDS011;7249;49.376;11.080;2024-01-30T14:52:52;6.47;;;4.53;;
14330;SDS011;7249;49.376;11.080;2024-01-30T14:55:17;9.63;;;4.90;;
14330;SDS011;7249;49.376;11.080;2024-01-30T14:57:43;4.90;;;4.37;;
14330;SDS011;7249;49.376;11.080;2024-01-30T15:00:11;6.30;;;4.33;;
14330;SDS011;7249;49.376;11.080;2024-01-30T15:02:37;6.27;;;4.57;;
14330;SDS011;7249;49.376;11.080;2024-01-30T15:05:03;7.37;;;5.43;;
14330;SDS011;7249;49.376;11.080;2024-01-30T15:07:29;9.53;;;5.13;;
14330;SDS011;7249;49.376;11.080;2024-01-30T15:09:55;8.70;;;4.80;;
14330;SDS011;7249;49.376;11.080;2024-01-30T15:12:21;9.30;;;4.83;;
14330;SDS011;7249;49.376;11.080;2024-01-30T15:14:46;8.57;;;4.50;;
14330;SDS011;7249;49.376;11.080;2024-01-30T15:17:18;5.83;;;4.70;;
14330;SDS011;7249;49.376;11.080;2024-01-30T15:19:46;7.20;;;4.60;;